sensor_id;sensor_type;location;lat;lon;timestamp;pressure;altitude;pressure_sealevel;temperature;humidity
58821;BME280;70670;52.476;13.334;2024-03-23T00:53:48;100160.94;;;6.27;100.00
58821;BME280;70670;52.476;13.334;2024-03-23T00:56:13;100152.34;;;6.22;100.00
58821;BME280;70670;52.476;13.334;2024-03-23T00:58:39;100155.78;;;6.24;100.00
58821;BME280;70670;52.476;13.334;2024-03-23T01:01:05;100152.19;;;6.25;100.00
58821;BME280;70670;52.476;13.334;2024-03-23T01:03:30;100155.50;;;6.30;100.00
58821;BME280;70670;52.476;13.334;2024-03-23T01:06:03;100153.75;;;6.29;100.00
58821;BME280;70670;52.476;13.334;2024-03-23T01:08:29;100085.78;;;5.86;100.00
58821;BME280;70670;52.476;13.334;2024-03-23T01:10:59;100159.06;;;6.29;100.00
58821;BME280;70670;52.476;13.334;2024-03-23T01:13:25;100148.44;;;6.29;100.00
58821;BME280;70670;52.476;13.334;2024-03-23T01:15:52;100135.09;;;6.12;100.00
58821;BME280;70670;52.476;13.334;2024-03-23T01:18:19;100147.16;;;6.19;100.00
58821;BME280;70670;52.476;13.334;2024-03-23T01:20:44;100129.78;;;6.12;100.00
58821;BME280;70670;52.476;13.334;2024-03-23T01:23:10;100152.97;;;6.27;100.00
58821;BME280;70670;52.476;13.334;2024-03-23T01:25:36;100050.19;;;5.71;100.00
58821;BME280;70670;52.476;13.334;2024-03-23T01:28:02;100137.63;;;6.15;100.00
58821;BME280;70670;52.476;13.334;2024-03-23T01:30:27;100130.41;;;6.17;100.00
58821;BME280;70670;52.476;13.334;2024-03-23T01:32:53;100060.59;;;5.76;100.00
58821;BME280;70670;52.476;13.334;2024-03-23T01:35:19;100106.16;;;6.06;100.00
58821;BME280;70670;52.476;13.334;2024-03-23T01:37:45;100080.72;;;6.00;100.00
58821;BME280;70670;52.476;13.334;2024-03-23T01:40:11;100098.34;;;6.22;100.00
58821;BME280;70670;52.476;13.334;2024-03-23T01:42:39;100087.72;;;6.22;100.00
58821;BME280;70670;52.476;13.334;2024-03-23T01:45:07;100098.25;;;6.23;100.00
58821;BME280;70670;52.476;13.334;2024-03-23T01:47:33;100043.09;;;5.90;100.00
58821;BME280;70670;52.476;13.334;2024-03-23T01:49:59;100086.06;;;6.19;100.00
58821;BME280;70670;52.476;13.334;2024-03-23T01:52:26;100087.91;;;6.17;100.00
58821;BME280;70670;52.476;13.334;2024-03-23T01:54:53;100094.03;;;6.19;100.00
58821;BME280;70670;52.476;13.334;2024-03-23T01:57:19;100088.25;;;6.09;100.00
58821;BME280;70670;52.476;13.334;2024-03-23T01:59:46;100079.22;;;6.13;100.00
58821;BME280;70670;52.476;13.334;2024-03-23T02:02:12;100087.75;;;6.20;100.00
58821;BME280;70670;52.476;13.334;2024-03-23T02:04:38;100070.16;;;6.18;100.00
58821;BME280;70670;52.476;13.334;2024-03-23T02:07:06;100077.09;;;6.22;100.00
58821;BME280;70670;52.476;13.334;2024-03-23T02:09:32;100081.38;;;6.24;100.00
58821;BME280;70670;52.476;13.334;2024-03-23T02:11:58;100088.56;;;6.22;100.00
58821;BME280;70670;52.476;13.334;2024-03-23T02:14:24;100069.47;;;6.14;100.00
58821;BME280;70670;52.476;13.334;2024-03-23T02:16:50;100042.16;;;5.91;100.00
58821;BME280;70670;52.476;13.334;2024-03-23T02:19:15;100057.06;;;5.96;100.00
58821;BME280;70670;52.476;13.334;2024-03-23T02:21:41;100064.56;;;6.05;100.00
58821;BME280;70670;52.476;13.334;2024-03-23T02:24:06;100074.13;;;6.09;100.00
58821;BME280;70670;52.476;13.334;2024-03-23T02:26:32;100076.50;;;6.15;100.00
58821;BME280;70670;52.476;13.334;2024-03-23T02:28:57;100063.34;;;6.12;100.00
58821;BME280;70670;52.476;13.334;2024-03-23T02:31:23;100033.88;;;5.99;100.00
58821;BME280;70670;52.476;13.334;2024-03-23T02:33:49;100034.59;;;6.03;100.00
58821;BME280;70670;52.476;13.334;2024-03-23T02:36:14;100037.66;;;6.12;100.00
58821;BME280;70670;52.476;13.334;2024-03-23T02:38:40;100041.81;;;6.18;100.00
58821;BME280;70670;52.476;13.334;2024-03-23T02:41:06;99968.66;;;5.73;100.00
58821;BME280;70670;52.476;13.334;2024-03-23T02:43:31;100000.56;;;5.92;100.00
58821;BME280;70670;52.476;13.334;2024-03-23T02:45:57;100015.06;;;6.04;100.00
58821;BME280;70670;52.476;13.334;2024-03-23T02:48:23;100031.63;;;6.09;100.00
58821;BME280;70670;52.476;13.334;2024-03-23T02:50:49;100030.63;;;6.11;100.00
58821;BME280;70670;52.476;13.334;2024-03-23T02:53:15;100004.00;;;5.94;100.00
58821;BME280;70670;52.476;13.334;2024-03-23T02:55:40;100026.41;;;6.07;100.00
58821;BME280;70670;52.476;13.334;2024-03-23T02:58:06;100008.72;;;5.87;100.00
58821;BME280;70670;52.476;13.334;2024-03-23T03:00:32;100013.88;;;5.90;100.00
58821;BME280;70670;52.476;13.334;2024-03-23T03:02:57;99998.59;;;5.77;100.00
58821;BME280;70670;52.476;13.334;2024-03-23T03:05:23;100026.03;;;5.96;100.00
58821;BME280;70670;52.476;13.334;2024-03-23T03:07:48;100027.84;;;5.96;100.00
58821;BME280;70670;52.476;13.334;2024-03-23T03:10:14;99993.22;;;5.78;100.00
58821;BME280;70670;52.476;13.334;2024-03-23T03:12:40;100017.97;;;5.98;100.00
58821;BME280;70670;52.476;13.334;2024-03-23T03:15:06;100013.47;;;6.00;100.00
58821;BME280;70670;52.476;13.334;2024-03-23T03:17:33;99938.47;;;5.57;100.00
58821;BME280;70670;52.476;13.334;2024-03-23T03:19:59;99949.59;;;5.65;100.00
58821;BME280;70670;52.476;13.334;2024-03-23T03:22:25;99980.44;;;5.86;100.00
58821;BME280;70670;52.476;13.334;2024-03-23T03:24:50;99999.56;;;5.95;100.00
58821;BME280;70670;52.476;13.334;2024-03-23T03:27:16;99980.59;;;5.83;100.00
58821;BME280;70670;52.476;13.334;2024-03-23T03:29:42;99986.53;;;5.88;100.00
58821;BME280;70670;52.476;13.334;2024-03-23T03:32:07;99991.19;;;5.83;100.00
58821;BME280;70670;52.476;13.334;2024-03-23T03:34:33;99986.75;;;5.84;100.00
58821;BME280;70670;52.476;13.334;2024-03-23T03:36:58;99982.44;;;5.81;100.00
58821;BME280;70670;52.476;13.334;2024-03-23T03:39:25;99962.50;;;5.73;100.00
58821;BME280;70670;52.476;13.334;2024-03-23T03:41:50;99976.41;;;5.78;100.00
58821;BME280;70670;52.476;13.334;2024-03-23T03:44:17;99894.94;;;5.23;100.00
58821;BME280;70670;52.476;13.334;2024-03-23T03:46:42;99988.31;;;5.69;100.00
58821;BME280;70670;52.476;13.334;2024-03-23T03:49:08;99947.13;;;5.41;100.00
58821;BME280;70670;52.476;13.334;2024-03-23T03:51:34;99964.81;;;5.42;100.00
58821;BME280;70670;52.476;13.334;2024-03-23T03:54:00;99967.06;;;5.50;100.00
58821;BME280;70670;52.476;13.334;2024-03-23T03:56:25;99979.84;;;5.61;100.00
58821;BME280;70670;52.476;13.334;2024-03-23T03:58:51;99979.84;;;5.61;100.00
58821;BME280;70670;52.476;13.334;2024-03-23T04:01:16;99877.31;;;5.03;100.00
58821;BME280;70670;52.476;13.334;2024-03-23T04:03:43;99970.41;;;5.55;100.00
58821;BME280;70670;52.476;13.334;2024-03-23T04:06:09;99961.50;;;5.56;100.00
58821;BME280;70670;52.476;13.334;2024-03-23T04:08:35;99951.75;;;5.57;100.00
58821;BME280;70670;52.476;13.334;2024-03-23T04:11:01;99944.00;;;5.52;100.00
58821;BME280;70670;52.476;13.334;2024-03-23T04:13:27;99886.16;;;5.02;100.00
58821;BME280;70670;52.476;13.334;2024-03-23T04:15:56;99965.72;;;5.41;100.00
58821;BME280;70670;52.476;13.334;2024-03-23T04:18:22;99968.44;;;5.40;100.00
58821;BME280;70670;52.476;13.334;2024-03-23T04:20:51;99966.78;;;5.37;100.00
58821;BME280;70670;52.476;13.334;2024-03-23T04:23:17;99935.66;;;5.22;100.00
58821;BME280;70670;52.476;13.334;2024-03-23T04:25:43;99958.44;;;5.26;100.00
58821;BME280;70670;52.476;13.334;2024-03-23T04:28:08;99959.38;;;5.25;100.00
58821;BME280;70670;52.476;13.334;2024-03-23T04:30:34;99968.06;;;5.29;100.00
58821;BME280;70670;52.476;13.334;2024-03-23T04:33:00;99941.13;;;5.19;100.00
58821;BME280;70670;52.476;13.334;2024-03-23T04:35:26;99952.16;;;5.29;100.00
58821;BME280;70670;52.476;13.334;2024-03-23T04:37:53;99951.50;;;5.24;100.00
58821;BME280;70670;52.476;13.334;2024-03-23T04:40:19;99916.88;;;5.08;100.00
58821;BME280;70670;52.476;13.334;2024-03-23T04:42:45;99945.41;;;5.22;100.00
58821;BME280;70670;52.476;13.334;2024-03-23T04:45:10;99941.16;;;5.17;100.00
58821;BME280;70670;52.476;13.334;2024-03-23T04:47:37;99917.00;;;5.05;100.00
58821;BME280;70670;52.476;13.334;2024-03-23T04:50:04;99918.66;;;5.07;100.00
58821;BME280;70670;52.476;13.334;2024-03-23T04:52:29;99910.25;;;4.98;100.00
58821;BME280;70670;52.476;13.334;2024-03-23T04:54:55;99902.59;;;4.91;100.00
58821;BME280;70670;52.476;13.334;2024-03-23T04:57:21;99899.13;;;4.89;100.00
58821;BME280;70670;52.476;13.334;2024-03-23T04:59:46;99899.94;;;4.91;100.00
58821;BME280;70670;52.476;13.334;2024-03-23T05:02:13;99898.19;;;4.90;100.00
58821;BME280;70670;52.476;13.334;2024-03-23T05:04:39;99845.00;;;4.56;100.00
58821;BME280;70670;52.476;13.334;2024-03-23T05:07:06;99834.78;;;4.47;100.00
58821;BME280;70670;52.476;13.334;2024-03-23T05:09:31;99897.53;;;4.85;100.00
58821;BME280;70670;52.476;13.334;2024-03-23T05:12:01;99849.16;;;4.61;100.00
58821;BME280;70670;52.476;13.334;2024-03-23T05:14:26;99898.47;;;4.84;100.00
58821;BME280;70670;52.476;13.334;2024-03-23T05:16:53;99895.63;;;4.89;100.00
58821;BME280;70670;52.476;13.334;2024-03-23T05:19:18;99820.88;;;4.41;100.00
58821;BME280;70670;52.476;13.334;2024-03-23T05:21:44;99848.41;;;4.58;100.00
58821;BME280;70670;52.476;13.334;2024-03-23T05:24:10;99896.34;;;4.92;100.00
58821;BME280;70670;52.476;13.334;2024-03-23T05:26:35;99898.91;;;4.94;100.00
58821;BME280;70670;52.476;13.334;2024-03-23T05:29:02;99891.50;;;4.82;100.00
58821;BME280;70670;52.476;13.334;2024-03-23T05:31:29;99894.25;;;4.80;100.00
58821;BME280;70670;52.476;13.334;2024-03-23T05:33:55;99762.25;;;4.10;100.00
58821;BME280;70670;52.476;13.334;2024-03-23T05:36:21;99860.25;;;4.69;100.00
58821;BME280;70670;52.476;13.334;2024-03-23T05:38:47;99853.16;;;4.70;100.00
58821;BME280;70670;52.476;13.334;2024-03-23T05:41:13;99879.13;;;4.82;100.00
58821;BME280;70670;52.476;13.334;2024-03-23T05:43:38;99844.16;;;4.74;100.00
58821;BME280;70670;52.476;13.334;2024-03-23T05:46:04;99861.72;;;4.77;100.00
58821;BME280;70670;52.476;13.334;2024-03-23T05:48:33;99865.72;;;4.85;100.00
58821;BME280;70670;52.476;13.334;2024-03-23T05:50:59;99853.63;;;4.80;100.00
58821;BME280;70670;52.476;13.334;2024-03-23T05:53:25;99845.72;;;4.78;100.00
58821;BME280;70670;52.476;13.334;2024-03-23T05:55:51;99846.59;;;4.79;100.00
58821;BME280;70670;52.476;13.334;2024-03-23T05:58:25;99843.16;;;4.77;100.00
58821;BME280;70670;52.476;13.334;2024-03-23T06:00:57;99786.31;;;4.44;100.00
58821;BME280;70670;52.476;13.334;2024-03-23T06:03:22;99838.28;;;4.86;100.00
58821;BME280;70670;52.476;13.334;2024-03-23T06:05:48;99823.31;;;4.85;100.00
58821;BME280;70670;52.476;13.334;2024-03-23T06:08:13;99824.75;;;4.92;100.00
58821;BME280;70670;52.476;13.334;2024-03-23T06:10:40;99805.97;;;4.78;100.00
58821;BME280;70670;52.476;13.334;2024-03-23T06:13:06;99680.84;;;3.94;100.00
58821;BME280;70670;52.476;13.334;2024-03-23T06:15:31;99810.66;;;4.92;100.00
58821;BME280;70670;52.476;13.334;2024-03-23T06:17:57;99822.09;;;4.92;100.00
58821;BME280;70670;52.476;13.334;2024-03-23T06:20:24;99790.88;;;4.80;100.00
58821;BME280;70670;52.476;13.334;2024-03-23T06:22:49;99805.56;;;4.87;100.00
58821;BME280;70670;52.476;13.334;2024-03-23T06:25:15;99809.63;;;4.94;100.00
58821;BME280;70670;52.476;13.334;2024-03-23T06:27:40;99804.47;;;4.91;100.00
58821;BME280;70670;52.476;13.334;2024-03-23T06:30:07;99802.75;;;4.90;100.00
58821;BME280;70670;52.476;13.334;2024-03-23T06:32:32;99798.50;;;4.86;100.00
58821;BME280;70670;52.476;13.334;2024-03-23T06:34:58;99740.72;;;4.57;100.00
58821;BME280;70670;52.476;13.334;2024-03-23T06:37:23;99752.03;;;4.60;100.00
58821;BME280;70670;52.476;13.334;2024-03-23T06:39:49;99802.59;;;4.93;100.00
58821;BME280;70670;52.476;13.334;2024-03-23T06:42:15;99715.78;;;4.42;100.00
58821;BME280;70670;52.476;13.334;2024-03-23T06:44:40;99789.56;;;4.89;100.00
58821;BME280;70670;52.476;13.334;2024-03-23T06:47:06;99794.88;;;4.89;100.00
58821;BME280;70670;52.476;13.334;2024-03-23T06:49:32;99716.56;;;4.44;100.00
58821;BME280;70670;52.476;13.334;2024-03-23T06:51:57;99785.22;;;4.88;100.00
58821;BME280;70670;52.476;13.334;2024-03-23T06:54:24;99767.78;;;4.82;100.00
58821;BME280;70670;52.476;13.334;2024-03-23T06:56:49;99776.41;;;4.87;100.00
58821;BME280;70670;52.476;13.334;2024-03-23T06:59:15;99772.66;;;4.91;100.00
58821;BME280;70670;52.476;13.334;2024-03-23T07:01:41;99777.03;;;4.92;100.00
58821;BME280;70670;52.476;13.334;2024-03-23T07:04:07;99688.28;;;4.44;100.00
58821;BME280;70670;52.476;13.334;2024-03-23T07:06:33;99763.50;;;4.80;100.00
58821;BME280;70670;52.476;13.334;2024-03-23T07:08:59;99755.97;;;4.71;100.00
58821;BME280;70670;52.476;13.334;2024-03-23T07:11:24;99771.50;;;4.78;100.00
58821;BME280;70670;52.476;13.334;2024-03-23T07:13:51;99770.66;;;4.78;100.00
58821;BME280;70670;52.476;13.334;2024-03-23T07:16:17;99769.88;;;4.76;100.00
58821;BME280;70670;52.476;13.334;2024-03-23T07:18:44;99709.88;;;4.35;100.00
58821;BME280;70670;52.476;13.334;2024-03-23T07:21:09;99701.16;;;4.33;100.00
58821;BME280;70670;52.476;13.334;2024-03-23T07:23:35;99711.47;;;4.39;100.00
58821;BME280;70670;52.476;13.334;2024-03-23T07:26:04;99738.13;;;4.74;100.00
58821;BME280;70670;52.476;13.334;2024-03-23T07:28:34;99741.28;;;4.82;100.00
58821;BME280;70670;52.476;13.334;2024-03-23T07:31:08;99680.22;;;4.48;100.00
58821;BME280;70670;52.476;13.334;2024-03-23T07:33:35;99749.88;;;4.87;100.00
58821;BME280;70670;52.476;13.334;2024-03-23T07:36:01;99748.00;;;4.89;100.00
58821;BME280;70670;52.476;13.334;2024-03-23T07:38:28;99764.53;;;4.94;100.00
58821;BME280;70670;52.476;13.334;2024-03-23T07:41:23;99761.91;;;4.94;100.00
58821;BME280;70670;52.476;13.334;2024-03-23T07:43:49;99748.22;;;4.85;100.00
58821;BME280;70670;52.476;13.334;2024-03-23T07:46:16;99751.47;;;4.91;100.00
58821;BME280;70670;52.476;13.334;2024-03-23T07:48:42;99761.97;;;4.93;100.00
58821;BME280;70670;52.476;13.334;2024-03-23T07:51:17;99751.47;;;4.91;100.00
58821;BME280;70670;52.476;13.334;2024-03-23T07:53:45;99751.66;;;4.87;100.00
58821;BME280;70670;52.476;13.334;2024-03-23T07:56:12;99720.66;;;4.70;100.00
58821;BME280;70670;52.476;13.334;2024-03-23T07:58:38;99736.28;;;4.76;100.00
58821;BME280;70670;52.476;13.334;2024-03-23T08:01:14;99692.56;;;4.47;100.00
58821;BME280;70670;52.476;13.334;2024-03-23T08:03:41;99752.81;;;4.81;100.00
58821;BME280;70670;52.476;13.334;2024-03-23T08:06:14;99675.25;;;4.40;100.00
58821;BME280;70670;52.476;13.334;2024-03-23T08:08:41;99744.38;;;4.73;100.00
58821;BME280;70670;52.476;13.334;2024-03-23T08:11:07;99724.81;;;4.76;100.00
58821;BME280;70670;52.476;13.334;2024-03-23T08:13:34;99731.09;;;4.73;100.00
58821;BME280;70670;52.476;13.334;2024-03-23T08:16:01;99727.66;;;4.71;100.00
58821;BME280;70670;52.476;13.334;2024-03-23T08:18:27;99721.66;;;4.67;100.00
58821;BME280;70670;52.476;13.334;2024-03-23T08:21:00;99697.59;;;4.53;100.00
58821;BME280;70670;52.476;13.334;2024-03-23T08:23:31;99721.94;;;4.61;100.00
58821;BME280;70670;52.476;13.334;2024-03-23T08:26:01;99726.66;;;4.55;100.00
58821;BME280;70670;52.476;13.334;2024-03-23T08:28:27;99714.56;;;4.49;100.00
58821;BME280;70670;52.476;13.334;2024-03-23T08:30:54;99647.09;;;4.00;100.00
58821;BME280;70670;52.476;13.334;2024-03-23T08:33:20;99720.22;;;4.41;100.00
58821;BME280;70670;52.476;13.334;2024-03-23T08:35:56;99715.41;;;4.31;100.00
58821;BME280;70670;52.476;13.334;2024-03-23T08:38:22;99737.38;;;4.33;100.00
58821;BME280;70670;52.476;13.334;2024-03-23T08:40:48;99718.00;;;4.32;100.00
58821;BME280;70670;52.476;13.334;2024-03-23T08:43:13;99696.13;;;4.08;100.00
58821;BME280;70670;52.476;13.334;2024-03-23T08:45:39;99709.56;;;4.04;100.00
58821;BME280;70670;52.476;13.334;2024-03-23T08:48:05;99697.78;;;3.90;100.00
58821;BME280;70670;52.476;13.334;2024-03-23T08:50:30;99710.31;;;3.87;100.00
58821;BME280;70670;52.476;13.334;2024-03-23T08:52:56;99729.44;;;3.93;100.00
58821;BME280;70670;52.476;13.334;2024-03-23T08:55:22;99724.38;;;3.87;100.00
58821;BME280;70670;52.476;13.334;2024-03-23T08:57:47;99727.97;;;3.86;100.00
58821;BME280;70670;52.476;13.334;2024-03-23T09:00:13;99669.50;;;3.52;100.00
58821;BME280;70670;52.476;13.334;2024-03-23T09:02:40;99708.59;;;3.65;100.00
58821;BME280;70670;52.476;13.334;2024-03-23T09:05:05;99710.75;;;3.56;100.00
58821;BME280;70670;52.476;13.334;2024-03-23T09:07:31;99734.97;;;3.67;100.00
58821;BME280;70670;52.476;13.334;2024-03-23T09:09:57;99732.41;;;3.65;100.00
58821;BME280;70670;52.476;13.334;2024-03-23T09:12:23;99734.44;;;3.59;100.00
58821;BME280;70670;52.476;13.334;2024-03-23T09:14:49;99707.31;;;3.33;100.00
58821;BME280;70670;52.476;13.334;2024-03-23T09:17:15;99740.38;;;3.43;100.00
58821;BME280;70670;52.476;13.334;2024-03-23T09:19:41;99743.28;;;3.37;100.00
58821;BME280;70670;52.476;13.334;2024-03-23T09:22:06;99742.59;;;3.32;100.00
58821;BME280;70670;52.476;13.334;2024-03-23T09:24:32;99722.22;;;3.14;100.00
58821;BME280;70670;52.476;13.334;2024-03-23T09:26:58;99731.78;;;3.16;100.00
58821;BME280;70670;52.476;13.334;2024-03-23T09:29:23;99667.88;;;2.85;100.00
58821;BME280;70670;52.476;13.334;2024-03-23T09:31:49;99742.75;;;3.29;100.00
58821;BME280;70670;52.476;13.334;2024-03-23T09:34:14;99753.91;;;3.36;100.00
58821;BME280;70670;52.476;13.334;2024-03-23T09:36:41;99749.63;;;3.33;100.00
58821;BME280;70670;52.476;13.334;2024-03-23T09:39:07;99735.13;;;3.22;100.00
58821;BME280;70670;52.476;13.334;2024-03-23T09:41:35;99754.91;;;3.33;100.00
58821;BME280;70670;52.476;13.334;2024-03-23T09:44:02;99607.56;;;2.30;100.00
58821;BME280;70670;52.476;13.334;2024-03-23T09:46:27;99761.50;;;3.23;100.00
58821;BME280;70670;52.476;13.334;2024-03-23T09:48:59;99732.28;;;3.04;100.00
58821;BME280;70670;52.476;13.334;2024-03-23T09:51:25;99754.81;;;3.14;100.00
58821;BME280;70670;52.476;13.334;2024-03-23T09:53:52;99778.28;;;3.22;100.00
58821;BME280;70670;52.476;13.334;2024-03-23T09:56:18;99776.81;;;3.15;100.00
58821;BME280;70670;52.476;13.334;2024-03-23T09:58:44;99701.25;;;2.65;100.00
58821;BME280;70670;52.476;13.334;2024-03-23T10:01:10;99770.53;;;2.95;100.00
58821;BME280;70670;52.476;13.334;2024-03-23T10:03:45;99801.53;;;3.14;100.00
58821;BME280;70670;52.476;13.334;2024-03-23T10:06:21;99805.44;;;3.04;100.00
58821;BME280;70670;52.476;13.334;2024-03-23T10:08:47;99816.66;;;3.10;100.00
58821;BME280;70670;52.476;13.334;2024-03-23T10:11:14;99823.66;;;3.11;100.00
58821;BME280;70670;52.476;13.334;2024-03-23T10:13:44;99758.16;;;2.74;100.00
58821;BME280;70670;52.476;13.334;2024-03-23T10:16:11;99764.34;;;2.73;100.00
58821;BME280;70670;52.476;13.334;2024-03-23T10:18:38;99760.78;;;2.74;100.00
58821;BME280;70670;52.476;13.334;2024-03-23T10:23:33;99814.41;;;3.00;100.00
58821;BME280;70670;52.476;13.334;2024-03-23T10:26:24;99818.19;;;2.92;100.00
58821;BME280;70670;52.476;13.334;2024-03-23T10:28:54;99823.56;;;2.91;100.00
58821;BME280;70670;52.476;13.334;2024-03-23T10:31:20;99826.94;;;2.94;100.00
58821;BME280;70670;52.476;13.334;2024-03-23T10:33:48;99837.28;;;3.01;100.00
58821;BME280;70670;52.476;13.334;2024-03-23T10:36:14;99839.00;;;3.02;100.00
58821;BME280;70670;52.476;13.334;2024-03-23T10:38:44;99840.72;;;3.03;100.00
58821;BME280;70670;52.476;13.334;2024-03-23T10:41:10;99823.56;;;2.91;100.00
58821;BME280;70670;52.476;13.334;2024-03-23T10:43:36;99843.47;;;3.00;100.00
58821;BME280;70670;52.476;13.334;2024-03-23T10:46:03;99840.19;;;2.93;100.00
58821;BME280;70670;52.476;13.334;2024-03-23T10:48:29;99695.94;;;2.20;100.00
58821;BME280;70670;52.476;13.334;2024-03-23T10:50:55;99770.72;;;2.67;100.00
58821;BME280;70670;52.476;13.334;2024-03-23T10:53:21;99850.59;;;3.21;100.00
58821;BME280;70670;52.476;13.334;2024-03-23T10:55:54;99752.41;;;2.63;100.00
58821;BME280;70670;52.476;13.334;2024-03-23T10:58:24;99846.34;;;3.17;100.00
58821;BME280;70670;52.476;13.334;2024-03-23T11:00:52;99838.75;;;3.08;100.00
58821;BME280;70670;52.476;13.334;2024-03-23T11:03:32;99844.69;;;3.14;100.00
58821;BME280;70670;52.476;13.334;2024-03-23T11:05:59;99848.19;;;3.15;100.00
58821;BME280;70670;52.476;13.334;2024-03-23T11:11:19;99855.91;;;3.21;100.00
58821;BME280;70670;52.476;13.334;2024-03-23T11:13:48;99857.84;;;3.16;100.00
58821;BME280;70670;52.476;13.334;2024-03-23T11:16:16;99846.50;;;3.12;100.00
58821;BME280;70670;52.476;13.334;2024-03-23T11:18:42;99837.63;;;3.15;100.00
58821;BME280;70670;52.476;13.334;2024-03-23T11:21:08;99821.84;;;3.12;100.00
58821;BME280;70670;52.476;13.334;2024-03-23T11:23:35;99841.63;;;3.25;100.00
58821;BME280;70670;52.476;13.334;2024-03-23T11:26:01;99842.50;;;3.26;100.00
58821;BME280;70670;52.476;13.334;2024-03-23T11:28:26;99771.75;;;2.87;100.00
58821;BME280;70670;52.476;13.334;2024-03-23T11:30:52;99856.09;;;3.38;100.00
58821;BME280;70670;52.476;13.334;2024-03-23T11:33:18;99783.06;;;2.90;100.00
58821;BME280;70670;52.476;13.334;2024-03-23T11:35:44;99859.22;;;3.26;100.00
58821;BME280;70670;52.476;13.334;2024-03-23T11:38:11;99854.59;;;3.31;100.00
58821;BME280;70670;52.476;13.334;2024-03-23T11:40:41;99866.66;;;3.38;100.00
58821;BME280;70670;52.476;13.334;2024-03-23T11:43:08;99865.63;;;3.42;100.00
58821;BME280;70670;52.476;13.334;2024-03-23T11:45:37;99870.69;;;3.49;100.00
58821;BME280;70670;52.476;13.334;2024-03-23T11:50:33;99865.00;;;3.58;100.00
58821;BME280;70670;52.476;13.334;2024-03-23T11:55:46;99878.16;;;3.59;100.00
58821;BME280;70670;52.476;13.334;2024-03-23T11:58:13;99890.44;;;3.62;100.00
58821;BME280;70670;52.476;13.334;2024-03-23T12:00:39;99884.19;;;3.63;100.00
58821;BME280;70670;52.476;13.334;2024-03-23T12:03:05;99887.66;;;3.65;100.00
58821;BME280;70670;52.476;13.334;2024-03-23T12:05:32;99792.66;;;3.15;100.00
58821;BME280;70670;52.476;13.334;2024-03-23T12:08:17;99890.13;;;3.69;100.00
58821;BME280;70670;52.476;13.334;2024-03-23T12:10:54;99875.22;;;3.67;100.00
58821;BME280;70670;52.476;13.334;2024-03-23T12:13:29;99858.41;;;3.68;100.00
58821;BME280;70670;52.476;13.334;2024-03-23T12:16:11;99864.50;;;3.70;100.00
58821;BME280;70670;52.476;13.334;2024-03-23T12:18:39;99844.88;;;3.76;100.00
58821;BME280;70670;52.476;13.334;2024-03-23T12:21:06;99856.72;;;3.87;100.00
58821;BME280;70670;52.476;13.334;2024-03-23T12:23:31;99846.53;;;3.78;100.00
58821;BME280;70670;52.476;13.334;2024-03-23T12:25:58;99867.19;;;3.90;100.00
58821;BME280;70670;52.476;13.334;2024-03-23T12:28:23;99830.41;;;3.84;100.00
58821;BME280;70670;52.476;13.334;2024-03-23T12:30:49;99857.56;;;4.10;100.00
58821;BME280;70670;52.476;13.334;2024-03-23T12:33:15;99851.47;;;4.08;100.00
58821;BME280;70670;52.476;13.334;2024-03-23T12:35:41;99807.66;;;3.80;100.00
58821;BME280;70670;52.476;13.334;2024-03-23T12:38:06;99868.78;;;4.16;100.00
58821;BME280;70670;52.476;13.334;2024-03-23T12:40:32;99788.84;;;3.66;100.00
58821;BME280;70670;52.476;13.334;2024-03-23T12:42:59;99787.47;;;3.56;100.00
58821;BME280;70670;52.476;13.334;2024-03-23T12:45:26;99863.88;;;3.85;100.00
58821;BME280;70670;52.476;13.334;2024-03-23T12:47:52;99857.25;;;3.53;100.00
58821;BME280;70670;52.476;13.334;2024-03-23T12:50:20;99841.00;;;3.40;100.00
58821;BME280;70670;52.476;13.334;2024-03-23T12:52:46;99846.28;;;3.40;100.00
58821;BME280;70670;52.476;13.334;2024-03-23T12:55:12;99796.13;;;3.17;100.00
58821;BME280;70670;52.476;13.334;2024-03-23T12:57:37;99807.81;;;3.33;100.00
58821;BME280;70670;52.476;13.334;2024-03-23T13:00:04;99840.03;;;3.65;100.00
58821;BME280;70670;52.476;13.334;2024-03-23T13:02:29;99848.44;;;3.75;100.00
58821;BME280;70670;52.476;13.334;2024-03-23T13:04:55;99846.41;;;3.81;100.00
58821;BME280;70670;52.476;13.334;2024-03-23T13:07:22;99820.94;;;3.79;100.00
58821;BME280;70670;52.476;13.334;2024-03-23T13:09:51;99855.56;;;3.94;100.00
58821;BME280;70670;52.476;13.334;2024-03-23T13:12:18;99817.53;;;3.97;100.00
58821;BME280;70670;52.476;13.334;2024-03-23T13:14:46;99839.75;;;4.13;100.00
58821;BME280;70670;52.476;13.334;2024-03-23T13:17:12;99838.91;;;4.33;100.00
58821;BME280;70670;52.476;13.334;2024-03-23T13:19:38;99831.56;;;4.59;100.00
58821;BME280;70670;52.476;13.334;2024-03-23T13:22:04;99818.81;;;4.87;100.00
58821;BME280;70670;52.476;13.334;2024-03-23T13:24:30;99836.88;;;5.36;100.00
58821;BME280;70670;52.476;13.334;2024-03-23T13:26:56;99797.63;;;5.42;100.00
58821;BME280;70670;52.476;13.334;2024-03-23T13:29:23;99831.25;;;5.78;100.00
58821;BME280;70670;52.476;13.334;2024-03-23T13:31:49;99837.19;;;6.02;100.00
58821;BME280;70670;52.476;13.334;2024-03-23T13:34:16;99720.22;;;5.69;100.00
58821;BME280;70670;52.476;13.334;2024-03-23T13:36:45;99744.28;;;6.01;100.00
58821;BME280;70670;52.476;13.334;2024-03-23T13:39:13;99830.97;;;6.54;100.00
58821;BME280;70670;52.476;13.334;2024-03-23T13:41:44;99825.28;;;6.77;100.00
58821;BME280;70670;52.476;13.334;2024-03-23T13:44:11;99817.06;;;6.82;100.00
58821;BME280;70670;52.476;13.334;2024-03-23T13:46:38;99789.47;;;6.67;98.11
58821;BME280;70670;52.476;13.334;2024-03-23T13:49:05;99811.13;;;6.93;100.00